Time;durP1;ratioP1;P1;durP2;ratioP2;P2;SDS_P1;SDS_P2;PMS_P1;PMS_P2;Temp;Humidity;BMP_temperature;BMP_pressure;BME280_temperature;BME280_humidity;BME280_pressure;Samples;Min_cycle;Max_cycle;Signal;HPM_P1;HPM_P2
2024/01/09 00:00:38;;;;;;;7.75;2.78;;;-2.90;99.90;;;;;;5013745;28;20034;-83
2024/01/09 00:03:04;;;;;;;7.68;2.72;;;-3.00;99.90;;;;;;5013545;28;20069;-82
2024/01/09 00:05:30;;;;;;;9.60;2.65;;;-1.30;99.90;;;;;;5013228;28;20484;-80
2024/01/09 00:07:55;;;;;;;6.13;2.83;;;-3.00;99.90;;;;;;5013216;28;20491;-82
2024/01/09 00:10:21;;;;;;;5.75;2.80;;;-3.00;99.90;;;;;;5013162;28;20131;-81
2024/01/09 00:12:47;;;;;;;7.55;2.88;;;-3.00;99.90;;;;;;4995495;28;20136;-85
2024/01/09 00:15:13;;;;;;;7.55;2.90;;;-3.10;99.90;;;;;;5013030;28;20033;-81
2024/01/09 00:17:40;;;;;;;6.07;2.67;;;-3.00;99.90;;;;;;5012763;28;20102;-85
2024/01/09 00:20:06;;;;;;;8.57;2.88;;;-3.10;99.90;;;;;;4995134;28;20060;-82
2024/01/09 00:22:32;;;;;;;7.45;3.30;;;-3.00;99.90;;;;;;4995596;28;20053;-82
2024/01/09 00:25:03;;;;;;;7.47;2.25;;;-3.00;99.90;;;;;;4995324;28;20050;-79
2024/01/09 00:27:28;;;;;;;8.65;4.07;;;-3.00;99.90;;;;;;5013241;28;20081;-83
2024/01/09 00:29:54;;;;;;;6.30;2.80;;;-3.10;99.90;;;;;;4995246;28;20081;-83
2024/01/09 00:32:20;;;;;;;11.45;3.05;;;-3.10;99.90;;;;;;4995347;28;20080;-81
2024/01/09 00:34:45;;;;;;;8.90;2.80;;;-3.20;99.90;;;;;;5013062;28;20065;-87
2024/01/09 00:37:12;;;;;;;6.10;2.97;;;-3.30;99.90;;;;;;5013014;28;20057;-82
2024/01/09 00:39:37;;;;;;;5.78;2.75;;;-3.10;99.90;;;;;;5010410;28;20099;-82
2024/01/09 00:42:03;;;;;;;7.75;2.78;;;-4.50;99.90;;;;;;4992510;28;20437;-85
2024/01/09 00:44:29;;;;;;;10.18;3.20;;;-3.20;99.90;;;;;;4992520;28;20034;-81
2024/01/09 00:46:55;;;;;;;6.03;2.90;;;-3.20;99.90;;;;;;4992162;28;20107;-90
2024/01/09 00:49:20;;;;;;;6.93;3.05;;;-3.30;99.90;;;;;;4993255;28;20050;-81
2024/01/09 00:51:46;;;;;;;6.43;2.83;;;-3.20;99.90;;;;;;4993472;28;20727;-82
2024/01/09 00:54:11;;;;;;;5.78;2.40;;;-3.30;99.90;;;;;;4959807;28;20038;-82
2024/01/09 00:56:37;;;;;;;5.32;2.78;;;-3.30;99.90;;;;;;4992080;28;20576;-81
2024/01/09 00:59:03;;;;;;;7.88;3.30;;;-3.30;99.90;;;;;;4975468;28;20052;-81
2024/01/09 01:01:28;;;;;;;8.25;2.85;;;-3.30;99.90;;;;;;4975494;28;20069;-85
2024/01/09 01:03:54;;;;;;;5.82;2.63;;;-3.30;99.90;;;;;;4976419;28;20478;-87
2024/01/09 01:06:19;;;;;;;6.20;2.70;;;-3.30;99.90;;;;;;4993620;28;20038;-91
2024/01/09 01:08:45;;;;;;;10.80;3.03;;;-3.30;99.90;;;;;;4993435;28;20054;-87
2024/01/09 01:11:11;;;;;;;7.60;2.80;;;-3.30;99.90;;;;;;4994451;28;20046;-82
2024/01/09 01:13:36;;;;;;;10.15;2.70;;;-3.40;99.90;;;;;;4993495;28;20536;-82
2024/01/09 01:16:02;;;;;;;7.93;2.50;;;-2.50;99.90;;;;;;4993154;28;20145;-91
2024/01/09 01:18:27;;;;;;;7.18;3.08;;;-3.40;99.90;;;;;;4993554;28;20052;-81
2024/01/09 01:20:53;;;;;;;8.18;3.22;;;-3.40;99.90;;;;;;4976392;28;20054;-82
2024/01/09 01:23:19;;;;;;;6.15;3.10;;;-3.40;99.90;;;;;;4994119;28;20169;-84
2024/01/09 01:25:44;;;;;;;6.63;3.05;;;-3.40;99.90;;;;;;4992847;28;20409;-82
2024/01/09 01:28:10;;;;;;;7.50;3.10;;;-3.40;99.90;;;;;;4992993;28;20115;-82
2024/01/09 01:30:36;;;;;;;6.57;2.90;;;-3.40;99.90;;;;;;4992296;28;20049;-80
2024/01/09 01:33:03;;;;;;;9.52;2.95;;;-3.50;99.90;;;;;;4975087;28;20101;-80
2024/01/09 01:35:28;;;;;;;9.50;2.70;;;-3.50;99.90;;;;;;4992366;28;20050;-82
2024/01/09 01:37:54;;;;;;;7.63;3.10;;;-3.50;99.90;;;;;;4992539;28;20061;-81
2024/01/09 01:40:20;;;;;;;9.65;3.03;;;-3.50;99.90;;;;;;4982581;28;20053;-81
2024/01/09 01:42:45;;;;;;;8.40;2.75;;;-3.50;99.90;;;;;;4994281;28;20057;-89
2024/01/09 01:45:18;;;;;;;8.57;3.10;;;-3.50;99.90;;;;;;5011981;28;20050;-80
2024/01/09 01:47:47;;;;;;;7.90;3.15;;;-3.50;99.90;;;;;;4995744;28;20783;-85
2024/01/09 01:50:15;;;;;;;8.88;2.92;;;-3.60;99.90;;;;;;5013061;28;20069;-83
2024/01/09 01:52:45;;;;;;;8.05;2.80;;;-3.50;99.90;;;;;;5011746;28;20046;-90
2024/01/09 01:55:12;;;;;;;9.77;3.22;;;-3.60;99.90;;;;;;5011841;28;20057;-80
2024/01/09 01:57:39;;;;;;;6.45;3.00;;;-3.70;99.90;;;;;;5012227;28;20046;-81
2024/01/09 02:00:05;;;;;;;7.72;2.75;;;-3.60;99.90;;;;;;4993931;28;20050;-80
2024/01/09 02:02:31;;;;;;;7.43;3.17;;;-3.60;99.90;;;;;;5012385;28;20456;-79
2024/01/09 02:04:57;;;;;;;6.65;2.83;;;-3.60;99.90;;;;;;5012363;28;20042;-86
2024/01/09 02:07:26;;;;;;;6.57;3.13;;;-3.70;99.90;;;;;;5011772;28;20396;-89
2024/01/09 02:09:53;;;;;;;6.25;2.95;;;-3.70;99.90;;;;;;5012317;28;20112;-86
2024/01/09 02:12:19;;;;;;;9.15;2.95;;;-3.70;99.90;;;;;;5013139;28;20096;-82
2024/01/09 02:14:46;;;;;;;14.60;3.10;;;-3.70;99.90;;;;;;5013153;28;20076;-80
2024/01/09 02:17:15;;;;;;;6.07;2.97;;;-3.70;99.90;;;;;;4994122;28;20045;-85
2024/01/09 02:19:40;;;;;;;7.75;3.03;;;-3.80;99.90;;;;;;4994491;28;20050;-80
2024/01/09 02:22:06;;;;;;;9.40;3.20;;;-3.70;99.90;;;;;;5011754;28;20100;-81
2024/01/09 02:24:32;;;;;;;7.28;3.10;;;-3.80;99.90;;;;;;4993846;28;20041;-80
2024/01/09 02:27:18;;;;;;;6.88;3.42;;;-3.80;99.90;;;;;;4994090;28;20463;-81
2024/01/09 02:29:50;;;;;;;7.45;2.88;;;-3.70;99.90;;;;;;4995271;28;20057;-85
2024/01/09 02:32:18;;;;;;;9.07;3.00;;;-3.80;99.90;;;;;;5013013;28;20077;-80
2024/01/09 02:34:45;;;;;;;8.85;2.88;;;-3.80;99.90;;;;;;5012503;28;20084;-79
2024/01/09 02:37:10;;;;;;;6.82;3.20;;;-3.80;99.90;;;;;;5012117;28;20049;-81
2024/01/09 02:39:36;;;;;;;7.65;2.70;;;-2.20;99.90;;;;;;5010078;28;20049;-79
2024/01/09 02:42:03;;;;;;;8.20;2.90;;;-3.90;99.90;;;;;;4974538;28;20046;-81
2024/01/09 02:44:28;;;;;;;6.05;3.08;;;-3.80;99.90;;;;;;4992072;28;20058;-79
2024/01/09 02:46:54;;;;;;;5.95;2.70;;;-3.90;99.90;;;;;;4974437;28;20104;-87
2024/01/09 02:49:20;;;;;;;8.10;2.72;;;-3.80;99.90;;;;;;4992543;28;20125;-80
2024/01/09 02:51:45;;;;;;;6.88;2.90;;;-3.90;99.90;;;;;;4992417;28;20070;-80
2024/01/09 02:54:11;;;;;;;6.30;2.60;;;-3.80;99.90;;;;;;4974298;28;20057;-80
2024/01/09 02:56:37;;;;;;;6.20;2.50;;;-3.90;99.90;;;;;;4974592;28;20050;-79
2024/01/09 02:59:03;;;;;;;8.10;3.13;;;-3.90;99.90;;;;;;4991790;28;20128;-79
2024/01/09 03:01:29;;;;;;;6.88;2.75;;;-3.90;99.90;;;;;;4991892;28;20093;-92
2024/01/09 03:03:54;;;;;;;6.47;2.72;;;-3.90;99.90;;;;;;4992695;28;20050;-80
2024/01/09 03:06:20;;;;;;;8.02;2.58;;;-3.90;99.90;;;;;;4975808;28;20046;-86
2024/01/09 03:08:48;;;;;;;6.78;3.13;;;-4.00;99.90;;;;;;4992569;28;20512;-81
2024/01/09 03:11:14;;;;;;;7.68;2.72;;;-4.00;99.90;;;;;;4958530;28;20091;-78
2024/01/09 03:13:40;;;;;;;6.72;2.92;;;-4.00;99.90;;;;;;4992415;28;20042;-81
2024/01/09 03:16:13;;;;;;;8.73;3.10;;;-4.00;99.90;;;;;;4974085;28;20105;-82
2024/01/09 03:18:39;;;;;;;8.52;3.03;;;-4.00;99.90;;;;;;4992512;28;20057;-79
2024/01/09 03:21:05;;;;;;;6.13;3.13;;;-3.10;99.90;;;;;;4994740;28;20038;-79
2024/01/09 03:23:33;;;;;;;5.13;2.60;;;-4.00;99.90;;;;;;4995397;28;20129;-81
2024/01/09 03:25:59;;;;;;;6.35;2.60;;;-4.10;99.90;;;;;;4994499;28;20089;-81
2024/01/09 03:28:26;;;;;;;6.90;2.50;;;-4.00;99.90;;;;;;4994463;28;20081;-85
2024/01/09 03:30:51;;;;;;;5.45;2.83;;;-4.00;99.90;;;;;;4995243;28;20065;-84
2024/01/09 03:33:17;;;;;;;7.43;2.88;;;-4.10;99.90;;;;;;4977206;28;20050;-89
2024/01/09 03:35:43;;;;;;;5.97;2.33;;;-4.10;99.90;;;;;;4994753;28;20047;-84
2024/01/09 03:38:08;;;;;;;7.38;2.83;;;-4.10;99.90;;;;;;4994358;28;20687;-78
2024/01/09 03:40:36;;;;;;;7.07;3.22;;;-4.10;99.90;;;;;;4994655;28;20401;-80
2024/01/09 03:43:02;;;;;;;8.50;2.55;;;-4.10;99.90;;;;;;4994412;28;20078;-84
2024/01/09 03:45:29;;;;;;;9.82;3.38;;;-3.90;99.90;;;;;;4994047;28;20057;-81
2024/01/09 03:47:55;;;;;;;6.63;3.13;;;-4.20;99.90;;;;;;4976707;28;20046;-79
2024/01/09 03:50:21;;;;;;;6.57;2.70;;;-4.20;99.90;;;;;;4994330;28;20505;-79
2024/01/09 03:52:46;;;;;;;6.95;3.13;;;-4.20;99.90;;;;;;4976660;28;20050;-79
2024/01/09 03:55:12;;;;;;;6.75;2.67;;;-4.20;99.90;;;;;;4997341;28;20045;-84
2024/01/09 03:57:38;;;;;;;10.23;3.60;;;-4.20;99.90;;;;;;4995691;28;20045;-84
2024/01/09 04:00:04;;;;;;;8.88;2.92;;;-4.20;99.90;;;;;;4996087;28;20049;-92
2024/01/09 04:02:30;;;;;;;6.32;2.97;;;-4.20;99.90;;;;;;4999851;28;20082;-81
2024/01/09 04:04:55;;;;;;;8.15;2.97;;;-4.30;99.90;;;;;;5001709;28;20073;-80
2024/01/09 04:07:21;;;;;;;8.35;2.60;;;-4.30;99.90;;;;;;4981193;28;20386;-91
2024/01/09 04:09:46;;;;;;;9.18;3.03;;;-4.30;99.90;;;;;;4994709;28;20106;-88
2024/01/09 04:12:12;;;;;;;5.97;2.83;;;-4.30;99.90;;;;;;4993794;28;20489;-81
2024/01/09 04:14:38;;;;;;;4.65;2.38;;;-4.40;99.90;;;;;;4975962;28;20129;-81
2024/01/09 04:17:03;;;;;;;8.02;2.75;;;-4.30;99.90;;;;;;4993108;28;20126;-86
2024/01/09 04:19:29;;;;;;;6.45;3.15;;;-4.40;99.90;;;;;;4993594;28;20129;-82
2024/01/09 04:21:55;;;;;;;9.25;2.92;;;-4.30;99.90;;;;;;4993647;28;20050;-84
2024/01/09 04:24:20;;;;;;;6.07;2.85;;;-4.40;99.90;;;;;;4975678;28;20117;-79
2024/01/09 04:26:46;;;;;;;5.97;2.70;;;-4.40;99.90;;;;;;4976598;28;20057;-80
2024/01/09 04:29:11;;;;;;;4.75;2.30;;;-4.40;99.90;;;;;;4976168;28;20050;-80
2024/01/09 04:31:37;;;;;;;10.48;3.00;;;-3.20;99.90;;;;;;4991437;28;20319;-84
2024/01/09 04:34:02;;;;;;;6.05;2.63;;;-4.40;99.90;;;;;;4982954;28;20073;-81
2024/01/09 04:36:28;;;;;;;6.68;2.75;;;-4.40;99.90;;;;;;4992793;28;20405;-80
2024/01/09 04:38:54;;;;;;;9.00;2.97;;;-4.50;99.90;;;;;;4992062;28;20042;-86
2024/01/09 04:41:19;;;;;;;7.45;2.70;;;-4.50;99.90;;;;;;4992262;28;20054;-79
2024/01/09 04:43:46;;;;;;;6.22;2.80;;;-4.50;99.90;;;;;;4992458;28;20085;-80
2024/01/09 04:46:11;;;;;;;4.93;2.60;;;-4.50;99.90;;;;;;4992781;28;20081;-79
2024/01/09 04:48:37;;;;;;;7.32;3.25;;;-4.50;99.90;;;;;;4986094;28;20077;-80
2024/01/09 04:51:03;;;;;;;8.23;3.70;;;-4.50;99.90;;;;;;4992596;28;20464;-82
2024/01/09 04:53:28;;;;;;;6.10;2.47;;;-4.50;99.90;;;;;;4992765;28;20097;-87
2024/01/09 04:55:54;;;;;;;6.80;2.50;;;-4.60;99.90;;;;;;4992224;28;20034;-82
2024/01/09 04:58:20;;;;;;;6.80;2.80;;;-4.50;99.90;;;;;;4992473;28;20784;-85
2024/01/09 05:00:47;;;;;;;4.82;2.25;;;-4.50;99.90;;;;;;4992248;28;20046;-80
2024/01/09 05:03:13;;;;;;;7.45;2.75;;;-4.60;99.90;;;;;;4991630;28;20042;-79
2024/01/09 05:05:39;;;;;;;6.55;2.60;;;-4.60;99.90;;;;;;4992613;28;20520;-80
2024/01/09 05:08:04;;;;;;;7.82;2.92;;;-4.60;99.90;;;;;;4992884;28;20417;-80
2024/01/09 05:10:31;;;;;;;5.75;2.60;;;-4.60;99.90;;;;;;4975177;28;20050;-81
2024/01/09 05:12:58;;;;;;;5.78;2.85;;;-4.60;99.90;;;;;;4991894;28;20053;-83
2024/01/09 05:15:23;;;;;;;8.40;2.78;;;-4.60;99.90;;;;;;4991743;28;20050;-80
2024/01/09 05:17:49;;;;;;;7.88;3.03;;;-4.60;99.90;;;;;;4988217;28;20047;-80
2024/01/09 05:20:14;;;;;;;6.68;3.58;;;-4.70;99.90;;;;;;4992417;28;20165;-81
2024/01/09 05:22:40;;;;;;;6.28;3.20;;;-4.70;99.90;;;;;;4992204;28;20501;-81
2024/01/09 05:25:09;;;;;;;7.03;3.08;;;-4.70;99.90;;;;;;4992036;28;20125;-82
2024/01/09 05:27:35;;;;;;;5.88;2.70;;;-4.70;99.90;;;;;;4974113;28;20485;-79
2024/01/09 05:30:00;;;;;;;7.13;3.10;;;-4.70;99.90;;;;;;4974130;28;20065;-82
2024/01/09 05:32:26;;;;;;;6.72;2.90;;;-4.70;99.90;;;;;;4988282;28;20042;-81
2024/01/09 05:34:52;;;;;;;8.03;3.07;;;-4.70;99.90;;;;;;4985762;28;20520;-86
2024/01/09 05:37:17;;;;;;;6.47;2.65;;;-4.70;99.90;;;;;;4992036;28;20042;-89
2024/01/09 05:39:45;;;;;;;11.77;3.42;;;-4.70;99.90;;;;;;4994430;28;20505;-86
2024/01/09 05:42:10;;;;;;;6.60;3.10;;;-4.70;99.90;;;;;;5010542;28;20112;-79
2024/01/09 05:44:36;;;;;;;7.00;3.40;;;-4.80;99.90;;;;;;5011017;28;20531;-77
2024/01/09 05:47:01;;;;;;;6.80;2.73;;;-4.80;99.90;;;;;;5009087;28;20464;-76
2024/01/09 05:49:27;;;;;;;6.80;3.33;;;-4.60;99.90;;;;;;5005612;28;20168;-81
2024/01/09 05:51:53;;;;;;;8.98;3.10;;;-4.80;99.90;;;;;;5011191;28;20046;-81
2024/01/09 05:54:18;;;;;;;8.20;3.63;;;-4.80;99.90;;;;;;4993193;28;20068;-82
2024/01/09 05:56:44;;;;;;;5.88;2.75;;;-4.80;99.90;;;;;;4993295;28;20053;-83
2024/01/09 05:59:09;;;;;;;7.90;3.20;;;-4.80;99.90;;;;;;5010721;28;20129;-82
2024/01/09 06:01:35;;;;;;;7.30;3.10;;;-4.80;99.90;;;;;;4992989;28;20046;-84
2024/01/09 06:04:01;;;;;;;6.90;2.88;;;-4.80;99.90;;;;;;5006328;28;20064;-83
2024/01/09 06:06:26;;;;;;;8.43;3.57;;;-4.90;99.90;;;;;;5011178;28;20060;-81
2024/01/09 06:08:52;;;;;;;7.18;3.30;;;-4.90;99.90;;;;;;4993632;28;20499;-85
2024/01/09 06:11:18;;;;;;;8.43;3.17;;;-4.90;99.90;;;;;;5010880;28;20192;-80
2024/01/09 06:13:43;;;;;;;9.77;3.20;;;-4.90;99.90;;;;;;4989303;28;20120;-81
2024/01/09 06:16:09;;;;;;;7.00;3.23;;;-4.90;99.90;;;;;;5010165;28;20377;-79
2024/01/09 06:18:35;;;;;;;8.03;3.43;;;-4.90;99.90;;;;;;4993361;28;20049;-86
2024/01/09 06:21:01;;;;;;;6.87;3.03;;;-5.00;99.90;;;;;;5010635;28;20042;-79
2024/01/09 06:23:26;;;;;;;6.33;3.00;;;-5.00;99.90;;;;;;5009413;28;20100;-79
2024/01/09 06:25:52;;;;;;;7.67;3.30;;;-4.90;99.90;;;;;;5010776;28;20042;-81
2024/01/09 06:28:17;;;;;;;6.85;3.17;;;-5.00;99.90;;;;;;5010657;28;20400;-81
2024/01/09 06:30:43;;;;;;;6.40;2.73;;;-5.00;99.90;;;;;;5010696;28;20057;-87
2024/01/09 06:33:09;;;;;;;7.77;3.40;;;-5.00;99.90;;;;;;5005396;28;20125;-85
2024/01/09 06:35:34;;;;;;;8.20;3.50;;;-5.00;99.90;;;;;;4991009;28;20570;-84
2024/01/09 06:38:00;;;;;;;9.23;2.80;;;-5.00;99.90;;;;;;5009092;28;20085;-87
2024/01/09 06:40:25;;;;;;;6.30;2.80;;;-5.00;99.90;;;;;;4993221;28;20089;-88
2024/01/09 06:42:52;;;;;;;7.40;2.90;;;-5.00;99.90;;;;;;4992986;28;20103;-79
2024/01/09 06:45:18;;;;;;;5.73;3.03;;;-5.10;99.90;;;;;;4992930;28;20065;-79
2024/01/09 06:47:44;;;;;;;6.23;3.37;;;-5.00;99.90;;;;;;5004915;28;20046;-80
2024/01/09 06:50:10;;;;;;;7.40;3.10;;;-5.10;99.90;;;;;;5011249;28;20068;-84
2024/01/09 06:52:36;;;;;;;6.77;3.20;;;-5.10;99.90;;;;;;4993024;28;20042;-79
2024/01/09 06:55:02;;;;;;;8.77;3.57;;;-5.10;99.90;;;;;;5012586;28;20054;-82
2024/01/09 06:57:28;;;;;;;8.03;3.10;;;-5.10;99.90;;;;;;5014646;28;20060;-79
2024/01/09 06:59:53;;;;;;;6.87;3.07;;;-5.10;99.90;;;;;;4996680;28;20030;-83
2024/01/09 07:02:20;;;;;;;8.37;3.13;;;-5.10;99.90;;;;;;5000948;28;20054;-78
2024/01/09 07:04:46;;;;;;;6.07;3.20;;;-5.10;99.90;;;;;;5013778;28;20054;-86
2024/01/09 07:07:12;;;;;;;5.60;2.80;;;-5.10;99.90;;;;;;5014438;28;20052;-80
2024/01/09 07:09:38;;;;;;;10.47;3.00;;;-5.10;99.90;;;;;;5014362;28;20112;-82
2024/01/09 07:12:05;;;;;;;6.40;3.10;;;-5.20;99.90;;;;;;5014444;28;20046;-79
2024/01/09 07:14:31;;;;;;;8.67;3.77;;;-5.10;99.90;;;;;;5006305;28;20125;-87
2024/01/09 07:16:57;;;;;;;6.43;2.87;;;-5.20;99.90;;;;;;5014228;28;20121;-84
2024/01/09 07:19:23;;;;;;;9.83;3.40;;;-5.20;99.90;;;;;;5013324;28;20485;-82
2024/01/09 07:21:49;;;;;;;6.57;3.13;;;-5.20;99.90;;;;;;5013848;28;20049;-79
2024/01/09 07:24:15;;;;;;;7.17;3.40;;;-5.20;99.90;;;;;;5013861;28;20046;-78
2024/01/09 07:26:41;;;;;;;5.90;3.03;;;-5.20;99.90;;;;;;5013498;28;20077;-80
2024/01/09 07:29:07;;;;;;;6.33;3.30;;;-5.20;99.90;;;;;;5013958;28;20401;-78
2024/01/09 07:31:33;;;;;;;10.00;3.37;;;-5.20;99.90;;;;;;5013178;28;20053;-80
2024/01/09 07:33:58;;;;;;;9.23;3.07;;;-5.20;99.90;;;;;;4995943;28;20452;-78
2024/01/09 07:36:24;;;;;;;8.00;3.30;;;-5.20;99.90;;;;;;5013679;28;20051;-79
2024/01/09 07:38:50;;;;;;;7.60;3.40;;;-5.20;99.90;;;;;;4995956;28;20042;-78
2024/01/09 07:41:18;;;;;;;7.40;3.77;;;-5.20;99.90;;;;;;5013552;28;20496;-78
2024/01/09 07:43:44;;;;;;;8.33;3.63;;;-5.20;99.90;;;;;;4996137;28;20061;-85
2024/01/09 07:46:13;;;;;;;5.87;3.03;;;-5.20;99.90;;;;;;4996590;28;20465;-85
2024/01/09 07:48:38;;;;;;;5.47;2.67;;;-5.20;99.90;;;;;;5013530;28;20060;-89
2024/01/09 07:51:04;;;;;;;7.67;3.20;;;-5.30;99.90;;;;;;5013140;28;20045;-79
2024/01/09 07:53:29;;;;;;;7.30;3.37;;;-5.20;99.90;;;;;;4995914;28;20053;-83
2024/01/09 07:55:55;;;;;;;5.93;3.03;;;-5.30;99.90;;;;;;4997789;28;20081;-79
2024/01/09 07:58:21;;;;;;;8.07;3.33;;;-5.30;99.90;;;;;;4998735;28;20155;-78
2024/01/09 08:00:46;;;;;;;8.40;3.03;;;-5.20;99.90;;;;;;5016977;28;20150;-79
2024/01/09 08:03:16;;;;;;;11.20;3.07;;;-5.20;99.90;;;;;;5017277;28;20042;-84
2024/01/09 08:05:41;;;;;;;6.07;2.83;;;-5.20;99.90;;;;;;4981032;28;20061;-77
2024/01/09 08:08:07;;;;;;;7.87;3.33;;;-5.20;99.90;;;;;;5015590;28;20400;-77
2024/01/09 08:10:33;;;;;;;8.00;3.10;;;-5.20;99.90;;;;;;5016802;28;20038;-82
2024/01/09 08:12:58;;;;;;;7.20;3.43;;;-5.20;99.90;;;;;;5017184;28;20042;-79
2024/01/09 08:15:24;;;;;;;7.73;3.53;;;-5.20;99.90;;;;;;4998051;28;20124;-79
2024/01/09 08:17:50;;;;;;;7.87;3.20;;;-5.30;99.90;;;;;;5015932;28;20695;-78
2024/01/09 08:20:16;;;;;;;8.87;3.43;;;-5.20;99.90;;;;;;5015421;28;20129;-81
2024/01/09 08:22:42;;;;;;;8.83;3.20;;;-5.30;99.90;;;;;;4996562;28;20049;-78
2024/01/09 08:25:07;;;;;;;7.20;3.50;;;-5.20;99.90;;;;;;5014760;28;20050;-78
2024/01/09 08:27:33;;;;;;;9.70;3.50;;;-4.40;99.90;;;;;;4998007;28;20050;-89
2024/01/09 08:29:59;;;;;;;8.67;3.03;;;-5.20;99.90;;;;;;5016049;28;20133;-79
2024/01/09 08:32:25;;;;;;;6.40;3.10;;;-5.20;99.90;;;;;;5016696;28;20050;-81
2024/01/09 08:34:50;;;;;;;7.07;3.30;;;-5.20;99.90;;;;;;5014539;28;20049;-79
2024/01/09 08:37:16;;;;;;;6.80;3.40;;;-5.20;99.90;;;;;;5014678;28;20054;-81
2024/01/09 08:39:42;;;;;;;8.77;3.23;;;-5.20;99.90;;;;;;5014919;28;20060;-79
2024/01/09 08:42:07;;;;;;;9.07;3.60;;;-5.20;99.90;;;;;;5015549;28;20420;-78
2024/01/09 08:44:34;;;;;;;9.40;3.80;;;-5.20;99.90;;;;;;4998811;28;20054;-84
2024/01/09 08:46:59;;;;;;;7.77;3.50;;;-5.10;99.90;;;;;;4996555;28;20045;-78
2024/01/09 08:49:25;;;;;;;9.17;3.50;;;-5.10;99.90;;;;;;4997628;28;20378;-80
2024/01/09 08:51:51;;;;;;;7.93;3.70;;;-5.10;99.90;;;;;;5015730;28;20120;-79
2024/01/09 08:54:17;;;;;;;8.73;3.60;;;-5.10;99.90;;;;;;5014806;28;20041;-79
2024/01/09 08:56:43;;;;;;;8.03;3.60;;;-5.10;99.90;;;;;;5015898;28;20042;-89
2024/01/09 08:59:09;;;;;;;6.67;3.30;;;-5.00;99.90;;;;;;5013523;28;20049;-79
2024/01/09 09:01:37;;;;;;;9.13;3.33;;;-5.00;99.90;;;;;;5018511;28;20049;-78
2024/01/09 09:04:03;;;;;;;7.37;3.30;;;-5.00;99.90;;;;;;5016453;28;20057;-86
2024/01/09 09:06:29;;;;;;;9.00;3.13;;;-4.90;99.90;;;;;;5018515;28;20476;-77
2024/01/09 09:08:55;;;;;;;7.30;3.47;;;-4.90;99.90;;;;;;5018648;28;20041;-78
2024/01/09 09:11:21;;;;;;;6.20;2.90;;;-4.90;99.90;;;;;;5018827;28;20512;-78
2024/01/09 09:13:47;;;;;;;6.03;2.87;;;-4.90;99.90;;;;;;4998658;28;20571;-78
2024/01/09 09:16:14;;;;;;;7.63;3.80;;;-4.80;99.90;;;;;;4997720;28;20115;-79
2024/01/09 09:18:39;;;;;;;8.30;3.13;;;-4.80;99.90;;;;;;5016422;28;20042;-80
2024/01/09 09:21:05;;;;;;;7.83;3.90;;;-4.70;99.90;;;;;;4998378;28;20055;-82
2024/01/09 09:23:32;;;;;;;8.40;3.10;;;-4.70;99.90;;;;;;5016375;28;20061;-90
2024/01/09 09:25:57;;;;;;;6.43;3.20;;;-4.60;99.90;;;;;;4997554;28;20053;-79
2024/01/09 09:28:24;;;;;;;7.70;3.10;;;-4.60;99.90;;;;;;5019499;28;20030;-88
2024/01/09 09:30:49;;;;;;;5.73;3.07;;;-4.50;99.90;;;;;;5001171;28;20053;-87
2024/01/09 09:33:15;;;;;;;7.40;3.10;;;-4.40;99.90;;;;;;5009231;28;20042;-78
2024/01/09 09:35:41;;;;;;;6.47;2.93;;;-4.40;99.90;;;;;;4985516;28;20042;-77
2024/01/09 09:38:06;;;;;;;7.13;2.70;;;-4.30;99.90;;;;;;5002230;28;20045;-78
2024/01/09 09:40:32;;;;;;;6.43;2.77;;;-4.20;99.90;;;;;;5009015;28;20042;-78
2024/01/09 09:43:02;;;;;;;7.20;3.40;;;-4.10;99.90;;;;;;5008267;28;20236;-77
2024/01/09 09:45:30;;;;;;;8.38;3.15;;;-4.10;99.90;;;;;;5005584;28;20527;-79
2024/01/09 09:47:56;;;;;;;6.75;2.97;;;-3.90;99.90;;;;;;5003221;28;20042;-86
2024/01/09 09:50:22;;;;;;;7.28;3.38;;;-3.80;99.90;;;;;;5004444;28;20081;-82
2024/01/09 09:52:49;;;;;;;8.75;3.25;;;-3.70;99.90;;;;;;5002265;28;20042;-81
2024/01/09 09:55:16;;;;;;;7.07;2.92;;;-3.50;99.90;;;;;;5012758;28;20085;-80
2024/01/09 09:57:42;;;;;;;9.68;3.30;;;-3.50;99.90;;;;;;4997328;28;20163;-81
2024/01/09 10:00:08;;;;;;;6.28;2.83;;;-3.30;99.90;;;;;;5011867;28;20548;-88
2024/01/09 10:02:38;;;;;;;9.00;3.00;;;-3.20;99.90;;;;;;4993351;28;20050;-81
2024/01/09 10:05:16;;;;;;;8.75;3.42;;;-3.00;99.90;;;;;;5010769;28;20121;-81
2024/01/09 10:07:45;;;;;;;7.55;3.53;;;-2.90;99.90;;;;;;5011741;28;20123;-86
2024/01/09 10:10:12;;;;;;;5.95;2.95;;;-2.70;99.90;;;;;;5012023;28;20057;-80
2024/01/09 10:12:39;;;;;;;6.47;3.10;;;-2.60;99.90;;;;;;5011601;28;20042;-86
2024/01/09 10:15:09;;;;;;;7.80;3.42;;;-2.50;99.90;;;;;;5010427;28;20516;-80
2024/01/09 10:17:39;;;;;;;6.82;3.35;;;-2.30;99.90;;;;;;5011112;28;20041;-81
2024/01/09 10:20:10;;;;;;;9.40;3.30;;;-2.10;99.90;;;;;;5010819;28;20498;-81
2024/01/09 10:22:38;;;;;;;6.82;2.90;;;-1.90;99.90;;;;;;5003286;28;20034;-82
2024/01/09 10:25:09;;;;;;;6.68;3.08;;;-1.80;99.90;;;;;;5011272;28;20501;-82
2024/01/09 10:27:37;;;;;;;7.47;3.15;;;-1.60;99.90;;;;;;4994306;28;20128;-81
2024/01/09 10:30:05;;;;;;;5.97;2.70;;;-1.50;99.90;;;;;;5015855;28;20124;-80
2024/01/09 10:32:36;;;;;;;7.85;3.17;;;-1.40;99.90;;;;;;4999679;28;20054;-85
2024/01/09 10:35:07;;;;;;;6.63;3.42;;;-1.20;99.90;;;;;;5017024;28;20046;-82
2024/01/09 10:37:36;;;;;;;6.75;2.92;;;-1.00;99.90;;;;;;4999768;28;20121;-81
2024/01/09 10:40:05;;;;;;;5.13;2.42;;;-0.80;99.90;;;;;;5017326;28;20046;-82
2024/01/09 10:42:31;;;;;;;6.38;2.78;;;-0.60;99.90;;;;;;5017997;28;20049;-86
2024/01/09 10:45:00;;;;;;;6.57;2.80;;;-0.50;99.90;;;;;;5016399;28;20053;-81
2024/01/09 10:47:27;;;;;;;6.47;2.92;;;-0.50;99.90;;;;;;5014818;28;20069;-80
2024/01/09 10:49:54;;;;;;;4.00;2.17;;;-0.50;99.90;;;;;;5014477;28;20165;-83
2024/01/09 10:52:21;;;;;;;5.40;2.55;;;0.70;99.90;;;;;;5015215;28;20045;-83
2024/01/09 10:54:47;;;;;;;5.45;2.83;;;-0.40;99.90;;;;;;4981321;28;20171;-83
2024/01/09 10:57:14;;;;;;;8.48;2.60;;;-0.20;99.90;;;;;;5010487;28;20053;-88
2024/01/09 10:59:41;;;;;;;5.43;2.28;;;-0.10;99.90;;;;;;5015120;28;20046;-79
2024/01/09 11:02:15;;;;;;;6.05;2.40;;;0.00;99.90;;;;;;5014230;28;20041;-77
2024/01/09 11:04:43;;;;;;;8.35;3.55;;;0.00;99.90;;;;;;5014733;28;20370;-81
2024/01/09 11:07:12;;;;;;;6.18;2.45;;;0.00;99.90;;;;;;5014565;28;20048;-78
2024/01/09 11:09:41;;;;;;;5.85;2.33;;;0.10;99.90;;;;;;5013718;28;20121;-77
2024/01/09 11:12:09;;;;;;;5.72;2.30;;;0.20;99.90;;;;;;5014357;28;20386;-80
2024/01/09 11:14:37;;;;;;;5.22;2.10;;;0.20;99.90;;;;;;4996419;28;20049;-84
2024/01/09 11:17:03;;;;;;;5.43;2.60;;;0.20;99.90;;;;;;4996588;28;20053;-78
2024/01/09 11:19:32;;;;;;;5.10;2.33;;;0.30;99.90;;;;;;5014174;28;20559;-85
2024/01/09 11:22:12;;;;;;;4.72;2.33;;;0.50;99.90;;;;;;4992131;28;20445;-80
2024/01/09 11:24:37;;;;;;;5.75;1.98;;;0.40;99.90;;;;;;4992116;28;20054;-79
2024/01/09 11:27:11;;;;;;;6.10;2.70;;;0.50;99.90;;;;;;5015502;28;20053;-79
2024/01/09 11:29:50;;;;;;;4.38;2.20;;;0.60;99.90;;;;;;5014360;28;20404;-79
2024/01/09 11:32:17;;;;;;;4.00;2.03;;;0.70;99.90;;;;;;4996119;28;20096;-83
2024/01/09 11:34:44;;;;;;;3.72;2.05;;;0.90;99.90;;;;;;5012996;28;20049;-86
2024/01/09 11:37:29;;;;;;;4.85;1.95;;;0.80;99.90;;;;;;5013158;28;20428;-80
2024/01/09 11:39:58;;;;;;;5.30;2.20;;;0.80;99.90;;;;;;5002053;28;20053;-78
2024/01/09 11:42:24;;;;;;;4.47;2.30;;;0.90;99.90;;;;;;5013368;28;20456;-79
2024/01/09 11:44:50;;;;;;;4.97;2.30;;;1.00;99.90;;;;;;5013566;28;20046;-79
2024/01/09 11:47:15;;;;;;;4.93;2.22;;;1.20;99.90;;;;;;5013356;28;20096;-84
2024/01/09 11:49:42;;;;;;;5.32;2.15;;;1.30;99.90;;;;;;4995301;28;20044;-80
2024/01/09 11:52:09;;;;;;;3.85;2.05;;;1.40;99.90;;;;;;5012179;28;20049;-85
2024/01/09 11:54:34;;;;;;;9.23;2.10;;;1.40;99.90;;;;;;5012969;28;20054;-80
2024/01/09 11:57:00;;;;;;;3.53;1.88;;;1.40;99.90;;;;;;5013134;28;20092;-82
2024/01/09 11:59:29;;;;;;;4.53;1.90;;;1.50;99.90;;;;;;5013048;28;20038;-81
2024/01/09 12:01:55;;;;;;;6.25;1.83;;;1.50;99.90;;;;;;5013155;28;20417;-84
2024/01/09 12:04:22;;;;;;;3.92;2.00;;;2.70;99.90;;;;;;5013029;28;20037;-81
2024/01/09 12:06:47;;;;;;;4.60;2.13;;;1.50;99.90;;;;;;5011999;28;20081;-81
2024/01/09 12:09:13;;;;;;;4.20;2.00;;;1.50;99.90;;;;;;5012555;28;20049;-79
2024/01/09 12:11:38;;;;;;;4.70;2.20;;;1.50;99.90;;;;;;4995000;28;20605;-81
2024/01/09 12:14:05;;;;;;;3.35;1.90;;;1.60;99.90;;;;;;5012567;28;20050;-82
2024/01/09 12:16:31;;;;;;;4.18;1.90;;;1.50;99.90;;;;;;5011912;28;20053;-81
2024/01/09 12:18:59;;;;;;;4.93;2.05;;;1.60;99.90;;;;;;5012528;28;20366;-79
2024/01/09 12:21:27;;;;;;;6.38;1.80;;;1.60;99.90;;;;;;5012352;28;20045;-88
2024/01/09 12:23:59;;;;;;;5.50;1.73;;;2.10;99.90;;;;;;5011596;28;20176;-78
2024/01/09 12:26:26;;;;;;;3.80;1.95;;;1.80;99.90;;;;;;5012279;28;20124;-78
2024/01/09 12:28:53;;;;;;;3.78;1.85;;;1.90;99.90;;;;;;5012317;28;20476;-83
2024/01/09 12:31:22;;;;;;;3.22;1.85;;;1.90;99.90;;;;;;4994459;28;20061;-86
2024/01/09 12:33:48;;;;;;;4.18;2.10;;;1.90;99.90;;;;;;5004204;28;20042;-82
2024/01/09 12:36:16;;;;;;;6.82;1.83;;;1.90;99.90;;;;;;5012216;28;20088;-83
2024/01/09 12:38:42;;;;;;;3.88;2.00;;;2.00;99.90;;;;;;5011824;28;20046;-84
2024/01/09 12:41:09;;;;;;;5.13;2.10;;;2.20;99.90;;;;;;5012111;28;20068;-79
2024/01/09 12:43:36;;;;;;;3.53;1.80;;;2.30;99.90;;;;;;5012436;28;20054;-78